createdAt,value
2019-01-30T00:01:02.659Z,15.48
2019-01-30T00:03:31.525Z,14.20
2019-01-30T00:06:00.421Z,14.80
2019-01-30T00:08:29.274Z,12.83
2019-01-30T00:10:58.156Z,13.93
2019-01-30T00:13:27.072Z,14.53
2019-01-30T00:15:56.787Z,14.73
2019-01-30T00:18:24.843Z,15.93
2019-01-30T00:20:53.735Z,13.77
2019-01-30T00:23:22.625Z,16.40
2019-01-30T00:25:51.526Z,20.07
2019-01-30T00:28:20.419Z,13.80
2019-01-30T00:30:49.304Z,11.80
2019-01-30T00:33:18.177Z,10.27
2019-01-30T00:35:47.062Z,16.50
2019-01-30T00:38:15.949Z,18.83
2019-01-30T00:40:44.796Z,17.73
2019-01-30T00:43:13.687Z,13.53
2019-01-30T00:45:42.564Z,12.37
2019-01-30T00:48:11.457Z,16.53
2019-01-30T00:50:40.316Z,13.60
2019-01-30T00:53:09.234Z,12.70
2019-01-30T00:55:38.102Z,15.93
2019-01-30T00:58:06.967Z,16.57
2019-01-30T01:00:35.910Z,14.60
2019-01-30T01:03:04.823Z,12.23
2019-01-30T01:05:33.674Z,14.50
2019-01-30T01:08:02.605Z,25.07
2019-01-30T01:10:31.454Z,11.17
2019-01-30T01:13:00.349Z,12.77
2019-01-30T01:15:29.249Z,16.37
2019-01-30T01:17:58.143Z,14.80
2019-01-30T01:20:27.014Z,16.07
2019-01-30T01:22:55.864Z,11.93
2019-01-30T01:25:24.737Z,14.77
2019-01-30T01:27:53.589Z,14.43
2019-01-30T01:30:25.635Z,14.27
2019-01-30T01:32:53.386Z,12.63
2019-01-30T01:35:22.284Z,15.87
2019-01-30T01:37:51.135Z,14.15
2019-01-30T01:40:20.032Z,15.35
2019-01-30T01:42:48.883Z,12.10
2019-01-30T01:45:19.356Z,13.97
2019-01-30T01:47:48.218Z,15.27
2019-01-30T01:50:18.636Z,12.50
2019-01-30T01:52:47.519Z,14.77
2019-01-30T01:55:16.403Z,13.27
2019-01-30T01:57:45.304Z,12.87
2019-01-30T02:00:16.406Z,14.73
2019-01-30T02:02:45.278Z,12.63
2019-01-30T02:05:16.268Z,12.73
2019-01-30T02:07:45.152Z,13.03
2019-01-30T02:10:16.071Z,12.57
2019-01-30T02:12:44.976Z,11.53
2019-01-30T02:15:16.129Z,14.53
2019-01-30T02:17:45.008Z,12.13
2019-01-30T02:20:19.214Z,14.37
2019-01-30T02:22:48.099Z,15.30
2019-01-30T02:25:16.942Z,16.43
2019-01-30T02:27:45.855Z,11.80
2019-01-30T02:30:17.254Z,12.97
2019-01-30T02:32:46.124Z,11.17
2019-01-30T02:35:15.020Z,12.63
2019-01-30T02:37:43.923Z,12.63
2019-01-30T02:40:14.332Z,11.80
2019-01-30T02:42:43.221Z,11.60
2019-01-30T02:45:13.756Z,11.57
2019-01-30T02:47:42.613Z,12.50
2019-01-30T02:50:13.394Z,12.10
2019-01-30T02:52:42.274Z,13.20
2019-01-30T02:55:12.299Z,13.07
2019-01-30T02:57:41.142Z,13.43
2019-01-30T03:00:25.221Z,12.50
2019-01-30T03:02:54.036Z,11.97
2019-01-30T03:05:22.926Z,14.77
2019-01-30T03:07:51.817Z,11.67
2019-01-30T03:10:20.697Z,9.53
2019-01-30T03:12:49.592Z,14.07
2019-01-30T03:15:18.505Z,14.73
2019-01-30T03:17:47.379Z,18.80
2019-01-30T03:20:18.517Z,12.73
2019-01-30T03:22:47.412Z,15.30
2019-01-30T03:25:16.886Z,14.73
2019-01-30T03:27:45.764Z,14.93
2019-01-30T03:30:17.344Z,13.87
2019-01-30T03:32:46.247Z,16.67
2019-01-30T03:35:15.117Z,15.33
2019-01-30T03:37:44.053Z,13.53
2019-01-30T03:40:14.845Z,15.85
2019-01-30T03:42:43.712Z,14.70
2019-01-30T03:45:13.081Z,12.83
2019-01-30T03:47:41.938Z,14.83
2019-01-30T03:50:11.642Z,12.03
2019-01-30T03:52:40.537Z,15.45
2019-01-30T03:55:10.640Z,12.37
2019-01-30T03:57:39.505Z,15.70
2019-01-30T04:00:11.919Z,12.90
2019-01-30T04:02:40.794Z,12.23
2019-01-30T04:05:09.700Z,14.03
2019-01-30T04:07:38.566Z,16.13
2019-01-30T04:10:08.409Z,13.30
2019-01-30T04:12:37.274Z,16.03
2019-01-30T04:15:06.726Z,18.23
2019-01-30T04:17:35.639Z,15.50
2019-01-30T04:20:05.855Z,13.73
2019-01-30T04:22:34.749Z,15.97
2019-01-30T04:25:03.628Z,12.53
2019-01-30T04:27:32.505Z,18.40
2019-01-30T04:30:01.397Z,15.60
2019-01-30T04:32:30.301Z,13.50
2019-01-30T04:34:59.181Z,14.67
2019-01-30T04:37:28.091Z,14.67
2019-01-30T04:39:56.977Z,15.83
2019-01-30T04:42:25.861Z,16.23
2019-01-30T04:44:54.741Z,12.93
2019-01-30T04:47:23.613Z,14.10
2019-01-30T04:49:52.480Z,13.47
2019-01-30T04:52:21.333Z,14.90
2019-01-30T04:54:50.210Z,13.93
2019-01-30T04:57:19.072Z,14.73
2019-01-30T04:59:48.007Z,16.80
2019-01-30T05:02:16.878Z,16.70
2019-01-30T05:04:45.745Z,13.87
2019-01-30T05:07:14.638Z,15.47
2019-01-30T05:09:43.513Z,15.13
2019-01-30T05:12:12.423Z,14.00
2019-01-30T05:14:41.297Z,13.47
2019-01-30T05:17:10.204Z,14.10
2019-01-30T05:19:39.068Z,17.87
2019-01-30T05:22:07.934Z,15.77
2019-01-30T05:24:36.829Z,15.33
2019-01-30T05:27:05.745Z,14.50
2019-01-30T05:29:34.612Z,14.03
2019-01-30T05:32:03.491Z,13.23
2019-01-30T05:34:32.344Z,14.50
2019-01-30T05:37:01.255Z,13.97
2019-01-30T05:39:30.142Z,15.93
2019-01-30T05:41:59.023Z,12.20
2019-01-30T05:44:27.901Z,13.80
2019-01-30T05:46:56.792Z,15.20
2019-01-30T05:49:25.685Z,14.90
2019-01-30T05:51:54.550Z,13.87
2019-01-30T05:54:23.440Z,14.80
2019-01-30T05:56:52.280Z,13.40
2019-01-30T05:59:21.150Z,12.33
2019-01-30T06:01:50.028Z,13.57
2019-01-30T06:04:18.889Z,14.30
2019-01-30T06:06:47.782Z,13.17
2019-01-30T06:09:16.642Z,15.33
2019-01-30T06:11:45.496Z,13.93
2019-01-30T06:14:14.368Z,12.77
2019-01-30T06:16:43.309Z,14.33
2019-01-30T06:19:12.097Z,16.10
2019-01-30T06:21:40.992Z,14.85
2019-01-30T06:24:09.870Z,14.57
2019-01-30T06:26:38.752Z,12.07
2019-01-30T06:29:07.666Z,13.47
2019-01-30T06:31:36.530Z,13.67
2019-01-30T06:34:05.409Z,13.03
2019-01-30T06:36:34.292Z,13.20
2019-01-30T06:39:03.289Z,13.57
2019-01-30T06:41:32.148Z,13.67
2019-01-30T06:44:01.044Z,13.47
2019-01-30T06:46:29.938Z,15.00
2019-01-30T06:48:58.851Z,12.03
2019-01-30T06:51:27.665Z,12.30
2019-01-30T06:53:56.530Z,13.63
2019-01-30T06:56:25.395Z,14.00
2019-01-30T06:58:54.267Z,12.93
2019-01-30T07:01:23.128Z,15.63
2019-01-30T07:03:52.000Z,12.67
2019-01-30T07:06:20.875Z,12.50
2019-01-30T07:08:49.744Z,13.83
2019-01-30T07:11:18.589Z,12.60
2019-01-30T07:13:47.474Z,12.03
2019-01-30T07:16:16.504Z,13.97
2019-01-30T07:18:45.392Z,17.27
2019-01-30T07:21:14.251Z,13.27
2019-01-30T07:23:43.128Z,14.03
2019-01-30T07:26:11.992Z,14.03
2019-01-30T07:28:40.859Z,13.60
2019-01-30T07:31:09.729Z,12.33
2019-01-30T07:33:38.580Z,14.27
2019-01-30T07:36:07.506Z,11.93
2019-01-30T07:38:36.385Z,16.13
2019-01-30T07:41:05.260Z,13.73
2019-01-30T07:43:34.129Z,14.07
2019-01-30T07:46:03.029Z,13.10
2019-01-30T07:48:31.923Z,13.43
2019-01-30T07:51:00.768Z,13.60
2019-01-30T07:53:29.623Z,12.53
2019-01-30T07:55:58.499Z,14.27
2019-01-30T07:58:27.389Z,11.77
2019-01-30T08:00:56.284Z,12.13
2019-01-30T08:03:25.164Z,13.77
2019-01-30T08:05:54.057Z,11.60
2019-01-30T08:08:22.904Z,12.70
2019-01-30T08:10:51.784Z,13.53
2019-01-30T08:13:20.659Z,13.57
2019-01-30T08:15:49.550Z,12.43
2019-01-30T08:18:18.419Z,12.33
2019-01-30T08:20:47.282Z,12.53
2019-01-30T08:23:16.487Z,12.00
2019-01-30T08:25:45.374Z,11.77
2019-01-30T08:28:15.915Z,12.97
2019-01-30T08:30:42.799Z,12.63
2019-01-30T08:33:11.651Z,13.23
2019-01-30T08:35:40.540Z,13.53
2019-01-30T08:38:09.472Z,14.10
2019-01-30T08:40:38.339Z,11.60
2019-01-30T08:43:07.300Z,13.90
2019-01-30T08:45:36.199Z,15.87
2019-01-30T08:48:05.209Z,15.43
2019-01-30T08:50:34.081Z,16.33
2019-01-30T08:53:02.953Z,15.63
2019-01-30T08:55:31.835Z,11.60
2019-01-30T08:58:00.729Z,14.03
2019-01-30T09:00:29.899Z,14.67
2019-01-30T09:02:58.779Z,12.90
2019-01-30T09:05:27.917Z,12.93
2019-01-30T09:07:56.747Z,13.43
2019-01-30T09:10:26.163Z,13.17
2019-01-30T09:12:55.047Z,16.12
2019-01-30T09:15:24.577Z,13.80
2019-01-30T09:17:53.496Z,15.43
2019-01-30T09:20:23.123Z,13.30
2019-01-30T09:22:52.009Z,12.93
2019-01-30T09:25:25.941Z,13.03
2019-01-30T09:27:54.820Z,13.20
2019-01-30T09:30:25.880Z,14.43
2019-01-30T09:32:55.453Z,12.20
2019-01-30T09:35:23.722Z,15.50
2019-01-30T09:37:52.555Z,14.73
2019-01-30T09:40:21.482Z,15.03
2019-01-30T09:42:50.600Z,13.17
2019-01-30T09:45:19.649Z,14.67
2019-01-30T09:47:48.903Z,15.93
2019-01-30T09:50:19.257Z,15.30
2019-01-30T09:52:48.179Z,14.17
2019-01-30T09:55:17.174Z,15.20
2019-01-30T09:57:46.007Z,13.83
2019-01-30T10:00:19.133Z,14.90
2019-01-30T10:02:47.958Z,13.60
2019-01-30T10:05:16.833Z,17.27
2019-01-30T10:07:45.724Z,17.60
2019-01-30T10:10:19.757Z,16.43
2019-01-30T10:12:48.629Z,16.00
2019-01-30T10:15:19.341Z,14.87
2019-01-30T10:17:48.247Z,14.63
2019-01-30T10:20:19.577Z,14.53
2019-01-30T10:22:48.465Z,12.80
2019-01-30T10:25:17.349Z,12.33
2019-01-30T10:27:46.250Z,14.73
2019-01-30T10:30:18.031Z,13.75
2019-01-30T10:32:46.916Z,13.13
2019-01-30T10:35:15.807Z,11.50
2019-01-30T10:37:44.706Z,14.07
2019-01-30T10:40:15.603Z,12.80
2019-01-30T10:42:44.490Z,11.53
2019-01-30T10:45:13.389Z,12.37
2019-01-30T10:47:42.316Z,14.97
2019-01-30T10:50:13.006Z,13.67
2019-01-30T10:52:41.798Z,14.50
2019-01-30T10:55:13.454Z,15.57
2019-01-30T10:57:42.346Z,14.17
2019-01-30T11:00:15.589Z,14.67
2019-01-30T11:02:46.471Z,13.43
2019-01-30T11:05:13.591Z,12.37
2019-01-30T11:07:42.497Z,12.27
2019-01-30T11:10:12.343Z,14.40
2019-01-30T11:12:41.216Z,11.60
2019-01-30T11:15:11.970Z,13.13
2019-01-30T11:17:40.845Z,12.13
2019-01-30T11:20:10.676Z,16.40
2019-01-30T11:22:39.547Z,13.87
2019-01-30T11:25:11.633Z,14.63
2019-01-30T11:27:40.504Z,14.07
2019-01-30T11:30:10.223Z,12.82
2019-01-30T11:32:39.122Z,12.57
2019-01-30T11:35:08.135Z,15.33
2019-01-30T11:37:37.038Z,12.13
2019-01-30T11:40:07.636Z,12.00
2019-01-30T11:42:36.489Z,12.70
2019-01-30T11:45:08.881Z,13.25
2019-01-30T11:47:37.767Z,12.07
2019-01-30T11:50:08.247Z,11.67
2019-01-30T11:52:37.126Z,11.77
2019-01-30T11:55:06.625Z,11.50
2019-01-30T11:57:35.498Z,15.50
2019-01-30T12:00:05.284Z,13.23
2019-01-30T12:02:34.127Z,13.60
2019-01-30T12:05:03.018Z,12.33
2019-01-30T12:07:31.906Z,16.07
2019-01-30T12:10:00.823Z,11.87
2019-01-30T12:12:29.699Z,12.43
2019-01-30T12:14:58.567Z,11.27
2019-01-30T12:17:27.477Z,12.47
2019-01-30T12:19:56.356Z,14.93
2019-01-30T12:22:25.250Z,15.60
2019-01-30T12:24:54.148Z,12.43
2019-01-30T12:27:23.012Z,11.67
2019-01-30T12:29:51.916Z,12.20
2019-01-30T12:32:20.796Z,13.65
2019-01-30T12:34:49.672Z,14.47
2019-01-30T12:37:18.666Z,11.93
2019-01-30T12:39:47.651Z,14.75
2019-01-30T12:42:16.510Z,12.30
2019-01-30T12:44:45.414Z,12.20
2019-01-30T12:47:19.902Z,13.83
2019-01-30T12:49:43.170Z,11.57
2019-01-30T12:52:12.060Z,12.77
2019-01-30T12:54:40.947Z,14.43
2019-01-30T12:57:10.009Z,15.70
2019-01-30T12:59:38.900Z,12.17
2019-01-30T13:02:07.936Z,12.03
2019-01-30T13:04:38.909Z,14.03
2019-01-30T13:07:05.780Z,13.40
2019-01-30T13:09:34.645Z,14.20
2019-01-30T13:12:03.581Z,12.00
2019-01-30T13:14:32.472Z,12.20
2019-01-30T13:17:01.341Z,14.70
2019-01-30T13:19:30.261Z,13.63
2019-01-30T13:21:59.151Z,14.07
2019-01-30T13:24:28.022Z,12.33
2019-01-30T13:26:56.927Z,12.30
2019-01-30T13:29:25.798Z,12.00
2019-01-30T13:31:54.665Z,14.53
2019-01-30T13:34:23.564Z,13.53
2019-01-30T13:36:52.435Z,11.40
2019-01-30T13:39:21.322Z,14.70
2019-01-30T13:41:52.635Z,14.20
2019-01-30T13:44:19.041Z,12.87
2019-01-30T13:46:47.931Z,13.27
2019-01-30T13:49:16.840Z,15.33
2019-01-30T13:51:45.683Z,13.53
2019-01-30T13:54:14.564Z,12.57
2019-01-30T13:56:43.437Z,14.10
2019-01-30T13:59:12.370Z,12.67
2019-01-30T14:01:41.218Z,14.87
2019-01-30T14:04:10.230Z,15.93
2019-01-30T14:06:39.082Z,12.70
2019-01-30T14:09:09.484Z,11.63
2019-01-30T14:11:38.201Z,13.60
2019-01-30T14:14:07.230Z,15.87
2019-01-30T14:16:36.077Z,14.17
2019-01-30T14:19:05.017Z,12.83
2019-01-30T14:21:33.926Z,14.37
2019-01-30T14:24:02.771Z,14.07
2019-01-30T14:26:52.408Z,14.20
2019-01-30T14:29:21.150Z,12.70
2019-01-30T14:31:50.011Z,14.53
2019-01-30T14:34:19.008Z,13.37
2019-01-30T14:36:47.938Z,13.97
2019-01-30T14:39:16.848Z,13.77
2019-01-30T14:41:45.772Z,18.27
2019-01-30T14:44:14.723Z,15.17
2019-01-30T14:46:43.716Z,14.03
2019-01-30T14:49:12.654Z,16.10
2019-01-30T14:51:41.611Z,15.87
2019-01-30T14:54:10.573Z,15.27
2019-01-30T14:56:39.580Z,14.33
2019-01-30T14:59:08.450Z,14.17
2019-01-30T15:01:37.362Z,18.00
2019-01-30T15:04:06.369Z,14.90
2019-01-30T15:06:35.313Z,17.90
2019-01-30T15:09:08.350Z,14.13
2019-01-30T15:11:37.251Z,17.87
2019-01-30T15:14:06.219Z,17.80
2019-01-30T15:16:35.126Z,16.00
2019-01-30T15:19:04.103Z,13.97
2019-01-30T15:21:33.025Z,17.40
2019-01-30T15:24:01.958Z,14.87
2019-01-30T15:26:30.917Z,16.10
2019-01-30T15:28:59.853Z,18.17
2019-01-30T15:31:28.813Z,16.23
2019-01-30T15:33:57.734Z,16.60
2019-01-30T15:36:26.665Z,16.83
2019-01-30T15:38:55.608Z,16.33
2019-01-30T15:41:24.567Z,16.80
2019-01-30T15:43:53.510Z,20.90
2019-01-30T15:46:22.452Z,19.50
2019-01-30T15:48:51.399Z,21.17
2019-01-30T15:51:20.305Z,20.40
2019-01-30T15:53:49.243Z,17.83
2019-01-30T15:56:18.171Z,17.67
2019-01-30T15:58:47.447Z,18.40
2019-01-30T16:01:38.946Z,18.27
2019-01-30T16:04:08.006Z,18.33
2019-01-30T16:06:37.932Z,19.97
2019-01-30T16:09:08.133Z,21.00
2019-01-30T16:11:37.159Z,18.53
2019-01-30T16:14:06.122Z,19.47
2019-01-30T16:16:35.235Z,23.00
2019-01-30T16:19:04.214Z,20.80
2019-01-30T16:21:33.244Z,20.60
2019-01-30T16:24:02.189Z,21.50
2019-01-30T16:26:31.038Z,22.63
2019-01-30T16:28:59.931Z,19.93
2019-01-30T16:31:28.819Z,22.43
2019-01-30T16:33:57.680Z,20.70
2019-01-30T16:36:26.640Z,22.73
2019-01-30T16:38:55.433Z,25.20
2019-01-30T16:41:24.323Z,22.77
2019-01-30T16:43:53.213Z,21.43
2019-01-30T16:46:22.100Z,21.80
2019-01-30T16:48:50.977Z,22.43
2019-01-30T16:51:19.856Z,23.63
2019-01-30T16:53:48.736Z,21.43
2019-01-30T16:56:17.622Z,22.63
2019-01-30T16:58:46.507Z,21.27
2019-01-30T17:01:15.378Z,21.53
2019-01-30T17:03:44.262Z,22.73
2019-01-30T17:06:13.152Z,25.83
2019-01-30T17:08:42.053Z,24.50
2019-01-30T17:11:10.927Z,27.07
2019-01-30T17:13:39.824Z,27.48
2019-01-30T17:16:08.689Z,27.40
2019-01-30T17:18:37.606Z,25.87
2019-01-30T17:21:06.513Z,25.00
2019-01-30T17:23:35.386Z,29.50
2019-01-30T17:26:05.219Z,24.47
2019-01-30T17:28:34.098Z,26.17
2019-01-30T17:31:24.303Z,27.03
2019-01-30T17:33:53.200Z,30.08
2019-01-30T17:36:22.111Z,25.50
2019-01-30T17:38:50.978Z,26.30
2019-01-30T17:41:19.880Z,27.07
2019-01-30T17:43:48.757Z,24.20
2019-01-30T17:46:17.770Z,26.33
2019-01-30T17:48:48.769Z,26.10
2019-01-30T17:51:15.437Z,29.10
2019-01-30T17:53:44.339Z,34.13
2019-01-30T17:56:13.211Z,32.07
2019-01-30T17:58:42.122Z,30.07
2019-01-30T18:01:10.968Z,29.27
2019-01-30T18:03:39.869Z,32.27
2019-01-30T18:06:08.813Z,31.87
2019-01-30T18:08:37.704Z,36.83
2019-01-30T18:11:06.681Z,33.53
2019-01-30T18:13:35.579Z,34.10
2019-01-30T18:16:04.489Z,38.57
2019-01-30T18:18:33.369Z,33.77
2019-01-30T18:21:02.225Z,32.17
2019-01-30T18:23:31.091Z,36.53
2019-01-30T18:26:01.330Z,32.60
2019-01-30T18:28:28.833Z,35.10
2019-01-30T18:30:57.726Z,34.03
2019-01-30T18:33:26.640Z,35.60
2019-01-30T18:35:56.480Z,35.33
2019-01-30T18:38:25.375Z,37.53
2019-01-30T18:40:54.265Z,38.10
2019-01-30T18:43:23.138Z,34.93
2019-01-30T18:45:52.005Z,33.37
2019-01-30T18:48:20.924Z,35.40
2019-01-30T18:50:49.825Z,37.73
2019-01-30T18:53:18.690Z,42.48
2019-01-30T18:55:47.564Z,40.05
2019-01-30T18:58:16.495Z,37.77
2019-01-30T19:00:45.411Z,35.67
2019-01-30T19:03:16.099Z,39.87
2019-01-30T19:05:45.019Z,35.50
2019-01-30T19:08:13.884Z,38.43
2019-01-30T19:10:42.735Z,36.67
2019-01-30T19:13:11.627Z,38.23
2019-01-30T19:15:40.505Z,36.63
2019-01-30T19:18:13.448Z,38.03
2019-01-30T19:20:43.790Z,35.73
2019-01-30T19:23:12.708Z,40.80
2019-01-30T19:25:41.569Z,40.37
2019-01-30T19:28:10.446Z,42.97
2019-01-30T19:30:39.289Z,40.87
2019-01-30T19:33:11.314Z,39.97
2019-01-30T19:35:40.114Z,38.73
2019-01-30T19:38:09.425Z,39.27
2019-01-30T19:40:38.293Z,38.97
2019-01-30T19:43:07.209Z,40.53
2019-01-30T19:45:36.078Z,43.57
2019-01-30T19:48:05.864Z,38.07
2019-01-30T19:50:34.767Z,39.47
2019-01-30T19:53:05.522Z,37.47
2019-01-30T19:55:32.566Z,43.00
2019-01-30T19:58:01.428Z,39.57
2019-01-30T20:00:33.002Z,36.70
2019-01-30T20:03:02.600Z,35.53
2019-01-30T20:05:31.501Z,38.17
2019-01-30T20:08:00.403Z,39.20
2019-01-30T20:10:31.426Z,40.08
2019-01-30T20:13:00.325Z,34.50
2019-01-30T20:15:29.739Z,34.43
2019-01-30T20:17:58.626Z,34.40
2019-01-30T20:20:27.490Z,35.80
2019-01-30T20:22:56.505Z,36.03
2019-01-30T20:25:27.739Z,33.70
2019-01-30T20:27:56.621Z,33.77
2019-01-30T20:30:25.546Z,33.83
2019-01-30T20:32:54.425Z,32.20
2019-01-30T20:35:23.316Z,30.23
2019-01-30T20:37:52.185Z,28.73
2019-01-30T20:40:23.034Z,29.07
2019-01-30T20:42:52.818Z,29.07
2019-01-30T20:45:20.794Z,25.37
2019-01-30T20:47:49.662Z,27.17
2019-01-30T20:50:23.735Z,25.87
2019-01-30T20:52:52.636Z,26.03
2019-01-30T20:55:21.567Z,24.47
2019-01-30T20:57:50.835Z,27.10
2019-01-30T21:00:22.269Z,27.63
2019-01-30T21:02:51.143Z,28.10
2019-01-30T21:05:20.085Z,27.33
2019-01-30T21:07:48.983Z,26.27
2019-01-30T21:10:20.246Z,23.83
2019-01-30T21:12:49.144Z,25.27
2019-01-30T21:15:19.176Z,22.97
2019-01-30T21:17:48.074Z,22.20
2019-01-30T21:20:16.999Z,24.47
2019-01-30T21:22:45.803Z,22.03
2019-01-30T21:25:20.205Z,28.25
2019-01-30T21:27:49.155Z,24.07
2019-01-30T21:30:23.281Z,23.70
2019-01-30T21:32:52.185Z,23.07
2019-01-30T21:35:21.084Z,24.92
2019-01-30T21:37:49.974Z,23.50
2019-01-30T21:40:18.875Z,24.60
2019-01-30T21:42:47.788Z,25.67
2019-01-30T21:45:18.250Z,25.90
2019-01-30T21:47:47.141Z,23.03
2019-01-30T21:50:16.387Z,24.63
2019-01-30T21:52:45.270Z,26.13
2019-01-30T21:55:18.810Z,24.83
2019-01-30T21:57:47.799Z,27.07
2019-01-30T22:00:27.390Z,26.07
2019-01-30T22:02:56.619Z,28.10
2019-01-30T22:05:25.552Z,29.70
2019-01-30T22:08:00.987Z,26.13
2019-01-30T22:10:25.397Z,27.33
2019-01-30T22:12:54.387Z,25.63
2019-01-30T22:15:23.184Z,23.30
2019-01-30T22:17:52.056Z,25.33
2019-01-30T22:20:22.681Z,24.63
2019-01-30T22:22:51.528Z,21.37
2019-01-30T22:25:20.979Z,23.43
2019-01-30T22:27:49.725Z,23.03
2019-01-30T22:30:29.632Z,22.97
2019-01-30T22:32:58.496Z,23.00
2019-01-30T22:35:27.406Z,24.83
2019-01-30T22:37:56.286Z,23.73
2019-01-30T22:40:25.127Z,19.90
2019-01-30T22:42:54.002Z,20.03
2019-01-30T22:45:22.892Z,22.13
2019-01-30T22:47:51.777Z,19.07
2019-01-30T22:50:20.658Z,16.03
2019-01-30T22:52:49.558Z,16.17
2019-01-30T22:55:19.850Z,16.07
2019-01-30T22:57:51.032Z,18.70
2019-01-30T23:00:51.404Z,12.33
2019-01-30T23:03:23.014Z,15.23
2019-01-30T23:06:32.457Z,13.17
2019-01-30T23:09:37.681Z,14.70
2019-01-30T23:12:47.297Z,13.57
2019-01-30T23:15:41.925Z,15.77
2019-01-30T23:18:43.702Z,18.13
2019-01-30T23:21:17.287Z,20.97
2019-01-30T23:24:10.354Z,18.50
2019-01-30T23:27:16.703Z,16.40
2019-01-30T23:30:37.235Z,16.17
2019-01-30T23:33:42.073Z,18.80
2019-01-30T23:36:47.747Z,17.70
2019-01-30T23:39:52.133Z,16.00
2019-01-30T23:42:50.621Z,17.10
2019-01-30T23:45:35.994Z,17.17
2019-01-30T23:48:33.228Z,15.93
2019-01-30T23:51:28.181Z,17.83
2019-01-30T23:54:16.974Z,21.13
2019-01-30T23:57:33.232Z,17.10
